sensor_id;sensor_type;location;lat;lon;timestamp;temperature;humidity
17146;DHT22;8688;54.444;18.444;2022-12-13T00:00:30;-1.50;1.00
17146;DHT22;8688;54.444;18.444;2022-12-13T00:02:58;-1.50;1.00
17146;DHT22;8688;54.444;18.444;2022-12-13T00:05:25;-1.50;1.00
17146;DHT22;8688;54.444;18.444;2022-12-13T00:07:53;-1.50;1.00
17146;DHT22;8688;54.444;18.444;2022-12-13T00:10:20;-1.50;1.00
17146;DHT22;8688;54.444;18.444;2022-12-13T00:12:47;-1.50;1.00
17146;DHT22;8688;54.444;18.444;2022-12-13T00:15:15;-1.50;1.00
17146;DHT22;8688;54.444;18.444;2022-12-13T00:17:44;-1.50;1.00
17146;DHT22;8688;54.444;18.444;2022-12-13T00:20:11;-1.50;1.00
17146;DHT22;8688;54.444;18.444;2022-12-13T00:22:39;-1.40;1.00
17146;DHT22;8688;54.444;18.444;2022-12-13T00:25:07;-1.50;1.00
17146;DHT22;8688;54.444;18.444;2022-12-13T00:27:34;-1.50;99.90
17146;DHT22;8688;54.444;18.444;2022-12-13T00:30:02;-1.50;99.90
17146;DHT22;8688;54.444;18.444;2022-12-13T00:32:29;-1.50;99.90
17146;DHT22;8688;54.444;18.444;2022-12-13T00:34:58;-1.50;99.90
17146;DHT22;8688;54.444;18.444;2022-12-13T00:37:26;-1.50;99.90
17146;DHT22;8688;54.444;18.444;2022-12-13T00:39:53;-1.60;99.90
17146;DHT22;8688;54.444;18.444;2022-12-13T00:42:21;-1.60;1.00
17146;DHT22;8688;54.444;18.444;2022-12-13T00:44:48;-1.60;99.90
17146;DHT22;8688;54.444;18.444;2022-12-13T00:47:16;-1.60;1.00
17146;DHT22;8688;54.444;18.444;2022-12-13T00:49:45;-1.70;1.00
17146;DHT22;8688;54.444;18.444;2022-12-13T00:52:14;-1.70;1.00
17146;DHT22;8688;54.444;18.444;2022-12-13T00:54:42;-1.70;1.00
17146;DHT22;8688;54.444;18.444;2022-12-13T00:57:09;-1.70;1.00
17146;DHT22;8688;54.444;18.444;2022-12-13T00:59:37;-1.70;1.00
17146;DHT22;8688;54.444;18.444;2022-12-13T01:02:04;-1.70;1.00
17146;DHT22;8688;54.444;18.444;2022-12-13T01:04:32;-1.70;1.00
17146;DHT22;8688;54.444;18.444;2022-12-13T01:06:59;-1.60;1.00
17146;DHT22;8688;54.444;18.444;2022-12-13T01:09:28;-1.60;1.00
17146;DHT22;8688;54.444;18.444;2022-12-13T01:11:58;-1.70;1.00
17146;DHT22;8688;54.444;18.444;2022-12-13T01:14:26;-1.70;1.00
17146;DHT22;8688;54.444;18.444;2022-12-13T01:16:54;-1.70;1.00
17146;DHT22;8688;54.444;18.444;2022-12-13T01:19:22;-1.70;1.00
17146;DHT22;8688;54.444;18.444;2022-12-13T01:21:53;-1.70;1.00
17146;DHT22;8688;54.444;18.444;2022-12-13T01:24:21;-1.70;1.00
17146;DHT22;8688;54.444;18.444;2022-12-13T01:26:51;-1.70;1.00
17146;DHT22;8688;54.444;18.444;2022-12-13T01:29:20;-1.60;1.00
17146;DHT22;8688;54.444;18.444;2022-12-13T01:31:48;-1.60;1.00
17146;DHT22;8688;54.444;18.444;2022-12-13T01:34:17;-1.60;1.00
17146;DHT22;8688;54.444;18.444;2022-12-13T01:36:46;-1.70;1.00
17146;DHT22;8688;54.444;18.444;2022-12-13T01:39:17;-1.60;1.00
17146;DHT22;8688;54.444;18.444;2022-12-13T01:41:47;-1.60;1.00
17146;DHT22;8688;54.444;18.444;2022-12-13T01:47:23;-1.60;1.00
17146;DHT22;8688;54.444;18.444;2022-12-13T01:49:54;-1.60;1.00
17146;DHT22;8688;54.444;18.444;2022-12-13T01:52:22;-1.60;1.00
17146;DHT22;8688;54.444;18.444;2022-12-13T01:54:52;-1.60;1.00
17146;DHT22;8688;54.444;18.444;2022-12-13T01:57:22;-1.60;1.00
17146;DHT22;8688;54.444;18.444;2022-12-13T01:59:51;-1.60;1.00
17146;DHT22;8688;54.444;18.444;2022-12-13T02:02:21;-1.60;1.00
17146;DHT22;8688;54.444;18.444;2022-12-13T02:04:53;-1.60;1.00
17146;DHT22;8688;54.444;18.444;2022-12-13T02:07:25;-1.60;1.00
17146;DHT22;8688;54.444;18.444;2022-12-13T02:09:57;-1.60;1.00
17146;DHT22;8688;54.444;18.444;2022-12-13T02:12:27;-1.60;1.00
17146;DHT22;8688;54.444;18.444;2022-12-13T02:14:56;-1.60;1.00
17146;DHT22;8688;54.444;18.444;2022-12-13T02:17:35;-1.50;99.90
17146;DHT22;8688;54.444;18.444;2022-12-13T02:23:18;-1.60;99.90
17146;DHT22;8688;54.444;18.444;2022-12-13T02:28:56;-1.50;99.90
17146;DHT22;8688;54.444;18.444;2022-12-13T02:31:33;-1.50;99.90
17146;DHT22;8688;54.444;18.444;2022-12-13T02:34:08;-1.50;99.90
17146;DHT22;8688;54.444;18.444;2022-12-13T02:36:43;-1.50;99.90
17146;DHT22;8688;54.444;18.444;2022-12-13T02:39:17;-1.50;99.90
17146;DHT22;8688;54.444;18.444;2022-12-13T02:41:49;-1.50;99.90
17146;DHT22;8688;54.444;18.444;2022-12-13T02:44:19;-1.50;99.90
17146;DHT22;8688;54.444;18.444;2022-12-13T02:46:50;-1.40;99.90
17146;DHT22;8688;54.444;18.444;2022-12-13T02:49:21;-1.40;99.90
17146;DHT22;8688;54.444;18.444;2022-12-13T02:51:51;-1.40;99.90
17146;DHT22;8688;54.444;18.444;2022-12-13T02:54:18;-1.40;99.90
17146;DHT22;8688;54.444;18.444;2022-12-13T02:56:53;-1.40;99.90
17146;DHT22;8688;54.444;18.444;2022-12-13T02:59:21;-1.40;99.90
17146;DHT22;8688;54.444;18.444;2022-12-13T03:01:59;-1.40;99.90
17146;DHT22;8688;54.444;18.444;2022-12-13T03:04:42;-1.40;99.90
17146;DHT22;8688;54.444;18.444;2022-12-13T03:07:38;-1.40;99.90
17146;DHT22;8688;54.444;18.444;2022-12-13T03:10:13;-1.40;99.90
17146;DHT22;8688;54.444;18.444;2022-12-13T03:12:49;-1.40;99.90
17146;DHT22;8688;54.444;18.444;2022-12-13T03:15:38;-1.40;99.90
17146;DHT22;8688;54.444;18.444;2022-12-13T03:18:13;-1.30;99.90
17146;DHT22;8688;54.444;18.444;2022-12-13T03:20:45;-1.30;99.90
17146;DHT22;8688;54.444;18.444;2022-12-13T03:23:13;-1.30;99.90
17146;DHT22;8688;54.444;18.444;2022-12-13T03:25:42;-1.30;99.90
17146;DHT22;8688;54.444;18.444;2022-12-13T03:28:10;-1.30;99.90
17146;DHT22;8688;54.444;18.444;2022-12-13T03:30:38;-1.30;99.90
17146;DHT22;8688;54.444;18.444;2022-12-13T03:33:05;-1.30;99.90
17146;DHT22;8688;54.444;18.444;2022-12-13T03:35:35;-1.40;99.90
17146;DHT22;8688;54.444;18.444;2022-12-13T03:38:03;-1.30;99.90
17146;DHT22;8688;54.444;18.444;2022-12-13T03:40:31;-1.30;99.90
17146;DHT22;8688;54.444;18.444;2022-12-13T03:42:59;-1.40;99.90
17146;DHT22;8688;54.444;18.444;2022-12-13T03:45:27;-1.40;99.90
17146;DHT22;8688;54.444;18.444;2022-12-13T03:47:54;-1.40;99.90
17146;DHT22;8688;54.444;18.444;2022-12-13T03:50:21;-1.40;99.90
17146;DHT22;8688;54.444;18.444;2022-12-13T03:52:51;-1.40;99.90
17146;DHT22;8688;54.444;18.444;2022-12-13T03:55:24;-1.40;99.90
17146;DHT22;8688;54.444;18.444;2022-12-13T03:57:51;-1.40;99.90
17146;DHT22;8688;54.444;18.444;2022-12-13T04:00:19;-1.40;99.90
17146;DHT22;8688;54.444;18.444;2022-12-13T04:02:46;-1.40;99.90
17146;DHT22;8688;54.444;18.444;2022-12-13T04:05:14;-1.50;1.00
17146;DHT22;8688;54.444;18.444;2022-12-13T04:07:41;-1.50;1.00
17146;DHT22;8688;54.444;18.444;2022-12-13T04:10:10;-1.50;1.00
17146;DHT22;8688;54.444;18.444;2022-12-13T04:12:37;-1.50;1.00
17146;DHT22;8688;54.444;18.444;2022-12-13T04:15:22;-1.50;1.00
17146;DHT22;8688;54.444;18.444;2022-12-13T04:17:50;-1.50;1.00
17146;DHT22;8688;54.444;18.444;2022-12-13T04:20:17;-1.50;1.00
17146;DHT22;8688;54.444;18.444;2022-12-13T04:22:45;-1.50;1.00
17146;DHT22;8688;54.444;18.444;2022-12-13T04:25:13;-1.40;1.00
17146;DHT22;8688;54.444;18.444;2022-12-13T04:27:41;-1.40;1.00
17146;DHT22;8688;54.444;18.444;2022-12-13T04:30:09;-1.40;99.90
17146;DHT22;8688;54.444;18.444;2022-12-13T04:32:36;-1.40;1.00
17146;DHT22;8688;54.444;18.444;2022-12-13T04:35:04;-1.40;99.90
17146;DHT22;8688;54.444;18.444;2022-12-13T04:37:32;-1.40;99.90
17146;DHT22;8688;54.444;18.444;2022-12-13T04:40:02;-1.40;99.90
17146;DHT22;8688;54.444;18.444;2022-12-13T04:42:31;-1.40;99.90
17146;DHT22;8688;54.444;18.444;2022-12-13T04:44:58;-1.40;99.90
17146;DHT22;8688;54.444;18.444;2022-12-13T04:47:26;-1.40;99.90
17146;DHT22;8688;54.444;18.444;2022-12-13T04:49:53;-1.40;99.90
17146;DHT22;8688;54.444;18.444;2022-12-13T04:52:21;-1.40;99.90
17146;DHT22;8688;54.444;18.444;2022-12-13T04:54:48;-1.40;99.90
17146;DHT22;8688;54.444;18.444;2022-12-13T04:57:16;-1.40;99.90
17146;DHT22;8688;54.444;18.444;2022-12-13T04:59:45;-1.40;1.00
17146;DHT22;8688;54.444;18.444;2022-12-13T05:02:12;-1.40;1.00
17146;DHT22;8688;54.444;18.444;2022-12-13T05:04:40;-1.40;1.00
17146;DHT22;8688;54.444;18.444;2022-12-13T05:07:08;-1.40;1.00
17146;DHT22;8688;54.444;18.444;2022-12-13T05:09:35;-1.40;1.00
17146;DHT22;8688;54.444;18.444;2022-12-13T05:12:03;-1.40;1.00
17146;DHT22;8688;54.444;18.444;2022-12-13T05:14:30;-1.40;1.00
17146;DHT22;8688;54.444;18.444;2022-12-13T05:17:00;-1.40;1.00
17146;DHT22;8688;54.444;18.444;2022-12-13T05:19:28;-1.50;1.00
17146;DHT22;8688;54.444;18.444;2022-12-13T05:21:55;-1.50;1.00
17146;DHT22;8688;54.444;18.444;2022-12-13T05:24:22;-1.50;1.00
17146;DHT22;8688;54.444;18.444;2022-12-13T05:26:50;-1.50;1.00
17146;DHT22;8688;54.444;18.444;2022-12-13T05:29:18;-1.50;1.00
17146;DHT22;8688;54.444;18.444;2022-12-13T05:31:45;-1.50;1.00
17146;DHT22;8688;54.444;18.444;2022-12-13T05:34:15;-1.50;1.00
17146;DHT22;8688;54.444;18.444;2022-12-13T05:36:42;-1.50;1.00
17146;DHT22;8688;54.444;18.444;2022-12-13T05:39:10;-1.50;1.00
17146;DHT22;8688;54.444;18.444;2022-12-13T05:41:37;-1.50;1.00
17146;DHT22;8688;54.444;18.444;2022-12-13T05:44:05;-1.50;1.00
17146;DHT22;8688;54.444;18.444;2022-12-13T05:46:32;-1.50;1.00
17146;DHT22;8688;54.444;18.444;2022-12-13T05:48:59;-1.50;1.00
17146;DHT22;8688;54.444;18.444;2022-12-13T05:51:28;-1.50;1.00
17146;DHT22;8688;54.444;18.444;2022-12-13T05:53:56;-1.50;1.00
17146;DHT22;8688;54.444;18.444;2022-12-13T05:56:23;-1.50;1.00
17146;DHT22;8688;54.444;18.444;2022-12-13T05:58:51;-1.50;1.00
17146;DHT22;8688;54.444;18.444;2022-12-13T06:01:19;-1.60;1.00
17146;DHT22;8688;54.444;18.444;2022-12-13T06:03:47;-1.50;1.00
17146;DHT22;8688;54.444;18.444;2022-12-13T06:06:14;-1.60;1.00
17146;DHT22;8688;54.444;18.444;2022-12-13T06:08:44;-1.60;1.00
17146;DHT22;8688;54.444;18.444;2022-12-13T06:11:12;-1.60;1.00
17146;DHT22;8688;54.444;18.444;2022-12-13T06:13:40;-1.60;1.00
17146;DHT22;8688;54.444;18.444;2022-12-13T06:16:09;-1.60;1.00
17146;DHT22;8688;54.444;18.444;2022-12-13T06:18:37;-1.60;1.00
17146;DHT22;8688;54.444;18.444;2022-12-13T06:21:05;-1.50;1.00
17146;DHT22;8688;54.444;18.444;2022-12-13T06:23:34;-1.60;1.00
17146;DHT22;8688;54.444;18.444;2022-12-13T06:26:04;-1.60;1.00
17146;DHT22;8688;54.444;18.444;2022-12-13T06:28:32;-1.60;1.00
17146;DHT22;8688;54.444;18.444;2022-12-13T06:31:00;-1.60;1.00
17146;DHT22;8688;54.444;18.444;2022-12-13T06:33:28;-1.60;1.00
17146;DHT22;8688;54.444;18.444;2022-12-13T06:35:56;-1.60;1.00
17146;DHT22;8688;54.444;18.444;2022-12-13T06:38:24;-1.60;1.00
17146;DHT22;8688;54.444;18.444;2022-12-13T06:40:51;-1.60;1.00
17146;DHT22;8688;54.444;18.444;2022-12-13T06:43:20;-1.60;1.00
17146;DHT22;8688;54.444;18.444;2022-12-13T06:45:48;-1.60;1.00
17146;DHT22;8688;54.444;18.444;2022-12-13T06:48:15;-1.60;1.00
17146;DHT22;8688;54.444;18.444;2022-12-13T06:50:43;-1.60;1.00
17146;DHT22;8688;54.444;18.444;2022-12-13T06:53:10;-1.60;1.00
17146;DHT22;8688;54.444;18.444;2022-12-13T06:55:38;-1.60;1.00
17146;DHT22;8688;54.444;18.444;2022-12-13T06:58:05;-1.60;1.00
17146;DHT22;8688;54.444;18.444;2022-12-13T07:00:34;-1.60;1.00
17146;DHT22;8688;54.444;18.444;2022-12-13T07:03:02;-1.60;1.00
17146;DHT22;8688;54.444;18.444;2022-12-13T07:05:29;-1.60;1.00
17146;DHT22;8688;54.444;18.444;2022-12-13T07:07:57;-1.50;1.00
17146;DHT22;8688;54.444;18.444;2022-12-13T07:10:24;-1.50;1.00
17146;DHT22;8688;54.444;18.444;2022-12-13T07:12:52;-1.50;1.00
17146;DHT22;8688;54.444;18.444;2022-12-13T07:15:19;-1.50;1.00
17146;DHT22;8688;54.444;18.444;2022-12-13T07:17:50;-1.50;1.00
17146;DHT22;8688;54.444;18.444;2022-12-13T07:20:18;-1.50;1.00
17146;DHT22;8688;54.444;18.444;2022-12-13T07:22:45;-1.50;1.00
17146;DHT22;8688;54.444;18.444;2022-12-13T07:25:17;-1.50;1.00
17146;DHT22;8688;54.444;18.444;2022-12-13T07:27:47;-1.50;1.00
17146;DHT22;8688;54.444;18.444;2022-12-13T07:30:14;-1.50;1.00
17146;DHT22;8688;54.444;18.444;2022-12-13T07:32:42;-1.50;1.00
17146;DHT22;8688;54.444;18.444;2022-12-13T07:35:11;-1.50;1.00
17146;DHT22;8688;54.444;18.444;2022-12-13T07:37:38;-1.50;1.00
17146;DHT22;8688;54.444;18.444;2022-12-13T07:40:07;-1.50;1.00
17146;DHT22;8688;54.444;18.444;2022-12-13T07:42:35;-1.50;1.00
17146;DHT22;8688;54.444;18.444;2022-12-13T07:45:03;-1.50;1.00
17146;DHT22;8688;54.444;18.444;2022-12-13T07:47:31;-1.50;1.00
17146;DHT22;8688;54.444;18.444;2022-12-13T07:49:58;-1.40;1.00
17146;DHT22;8688;54.444;18.444;2022-12-13T07:52:27;-1.40;1.00
17146;DHT22;8688;54.444;18.444;2022-12-13T07:54:55;-1.40;1.00
17146;DHT22;8688;54.444;18.444;2022-12-13T07:57:22;-1.40;1.00
17146;DHT22;8688;54.444;18.444;2022-12-13T07:59:50;-1.30;1.00
17146;DHT22;8688;54.444;18.444;2022-12-13T08:02:18;-1.40;1.00
17146;DHT22;8688;54.444;18.444;2022-12-13T08:04:45;-1.30;1.00
17146;DHT22;8688;54.444;18.444;2022-12-13T08:07:12;-1.30;1.00
17146;DHT22;8688;54.444;18.444;2022-12-13T08:09:43;-1.30;99.90
17146;DHT22;8688;54.444;18.444;2022-12-13T08:12:10;-1.30;99.90
17146;DHT22;8688;54.444;18.444;2022-12-13T08:14:38;-1.30;99.90
17146;DHT22;8688;54.444;18.444;2022-12-13T08:17:05;-1.30;99.90
17146;DHT22;8688;54.444;18.444;2022-12-13T08:19:33;-1.20;99.90
17146;DHT22;8688;54.444;18.444;2022-12-13T08:22:00;-1.20;99.90
17146;DHT22;8688;54.444;18.444;2022-12-13T08:24:29;-1.20;99.90
17146;DHT22;8688;54.444;18.444;2022-12-13T08:27:00;-1.10;99.90
17146;DHT22;8688;54.444;18.444;2022-12-13T08:29:29;-1.10;99.90
17146;DHT22;8688;54.444;18.444;2022-12-13T08:31:57;-1.10;99.90
17146;DHT22;8688;54.444;18.444;2022-12-13T08:34:25;-1.10;99.90
17146;DHT22;8688;54.444;18.444;2022-12-13T08:36:52;-1.10;99.90
17146;DHT22;8688;54.444;18.444;2022-12-13T08:39:19;-1.00;99.90
17146;DHT22;8688;54.444;18.444;2022-12-13T08:41:47;-1.00;99.90
17146;DHT22;8688;54.444;18.444;2022-12-13T08:44:16;-1.00;99.90
17146;DHT22;8688;54.444;18.444;2022-12-13T08:46:43;-1.00;99.90
17146;DHT22;8688;54.444;18.444;2022-12-13T08:49:11;-1.00;99.90
17146;DHT22;8688;54.444;18.444;2022-12-13T08:51:38;-1.00;99.90
17146;DHT22;8688;54.444;18.444;2022-12-13T08:54:05;-0.90;99.90
17146;DHT22;8688;54.444;18.444;2022-12-13T08:56:33;-0.90;99.90
17146;DHT22;8688;54.444;18.444;2022-12-13T08:59:01;-0.90;99.90
17146;DHT22;8688;54.444;18.444;2022-12-13T09:01:30;-0.90;99.90
17146;DHT22;8688;54.444;18.444;2022-12-13T09:03:58;-0.90;99.90
17146;DHT22;8688;54.444;18.444;2022-12-13T09:06:25;-0.80;99.90
17146;DHT22;8688;54.444;18.444;2022-12-13T09:08:52;-0.90;99.90
17146;DHT22;8688;54.444;18.444;2022-12-13T09:11:20;-0.90;99.90
17146;DHT22;8688;54.444;18.444;2022-12-13T09:13:48;-0.90;99.90
17146;DHT22;8688;54.444;18.444;2022-12-13T09:16:18;-0.90;99.90
17146;DHT22;8688;54.444;18.444;2022-12-13T09:18:48;-0.90;99.90
17146;DHT22;8688;54.444;18.444;2022-12-13T09:21:16;-0.80;99.90
17146;DHT22;8688;54.444;18.444;2022-12-13T09:23:44;-0.80;99.90
17146;DHT22;8688;54.444;18.444;2022-12-13T09:26:12;-0.80;99.90
17146;DHT22;8688;54.444;18.444;2022-12-13T09:28:40;-0.80;99.90
17146;DHT22;8688;54.444;18.444;2022-12-13T09:31:09;-0.80;99.90
17146;DHT22;8688;54.444;18.444;2022-12-13T09:33:37;-0.70;99.90
17146;DHT22;8688;54.444;18.444;2022-12-13T09:36:08;-0.70;99.90
17146;DHT22;8688;54.444;18.444;2022-12-13T09:38:36;-0.80;99.90
17146;DHT22;8688;54.444;18.444;2022-12-13T09:41:13;-0.70;99.90
17146;DHT22;8688;54.444;18.444;2022-12-13T09:43:42;-0.70;99.90
17146;DHT22;8688;54.444;18.444;2022-12-13T09:46:19;-0.70;99.90
17146;DHT22;8688;54.444;18.444;2022-12-13T09:48:48;-0.70;99.90
17146;DHT22;8688;54.444;18.444;2022-12-13T09:51:17;-0.60;99.90
17146;DHT22;8688;54.444;18.444;2022-12-13T09:53:48;-0.60;99.90
17146;DHT22;8688;54.444;18.444;2022-12-13T09:56:18;-0.60;99.90
17146;DHT22;8688;54.444;18.444;2022-12-13T09:58:48;-0.60;99.90
17146;DHT22;8688;54.444;18.444;2022-12-13T10:01:16;-0.50;99.90
17146;DHT22;8688;54.444;18.444;2022-12-13T10:03:47;-0.50;99.90
17146;DHT22;8688;54.444;18.444;2022-12-13T10:06:19;-0.50;99.90
17146;DHT22;8688;54.444;18.444;2022-12-13T10:08:48;-0.50;99.90
17146;DHT22;8688;54.444;18.444;2022-12-13T10:11:18;-0.50;99.90
17146;DHT22;8688;54.444;18.444;2022-12-13T10:13:50;-0.50;99.90
17146;DHT22;8688;54.444;18.444;2022-12-13T10:16:26;-0.40;99.90
17146;DHT22;8688;54.444;18.444;2022-12-13T10:18:55;-0.40;99.90
17146;DHT22;8688;54.444;18.444;2022-12-13T10:21:27;-0.40;99.90
17146;DHT22;8688;54.444;18.444;2022-12-13T10:24:03;-0.40;99.90
17146;DHT22;8688;54.444;18.444;2022-12-13T10:26:35;-0.40;99.90
17146;DHT22;8688;54.444;18.444;2022-12-13T10:29:05;-0.40;99.90
17146;DHT22;8688;54.444;18.444;2022-12-13T10:31:39;-0.30;99.90
17146;DHT22;8688;54.444;18.444;2022-12-13T10:34:23;-0.30;99.90
17146;DHT22;8688;54.444;18.444;2022-12-13T10:36:53;-0.30;99.90
17146;DHT22;8688;54.444;18.444;2022-12-13T10:39:36;-0.30;99.90
17146;DHT22;8688;54.444;18.444;2022-12-13T10:42:08;-0.30;99.90
17146;DHT22;8688;54.444;18.444;2022-12-13T10:44:37;-0.30;99.90
17146;DHT22;8688;54.444;18.444;2022-12-13T10:47:14;-0.30;99.90
17146;DHT22;8688;54.444;18.444;2022-12-13T10:49:48;-0.20;99.90
17146;DHT22;8688;54.444;18.444;2022-12-13T10:52:25;-0.30;99.90
17146;DHT22;8688;54.444;18.444;2022-12-13T10:54:54;-0.30;99.90
17146;DHT22;8688;54.444;18.444;2022-12-13T10:57:22;-0.20;99.90
17146;DHT22;8688;54.444;18.444;2022-12-13T10:59:51;-0.20;99.90
17146;DHT22;8688;54.444;18.444;2022-12-13T11:02:32;-0.30;99.90
17146;DHT22;8688;54.444;18.444;2022-12-13T11:05:21;-0.30;99.90
17146;DHT22;8688;54.444;18.444;2022-12-13T11:07:50;-0.30;99.90
17146;DHT22;8688;54.444;18.444;2022-12-13T11:10:23;-0.20;99.90
17146;DHT22;8688;54.444;18.444;2022-12-13T11:12:55;-0.20;99.90
17146;DHT22;8688;54.444;18.444;2022-12-13T11:15:25;-0.30;99.90
17146;DHT22;8688;54.444;18.444;2022-12-13T11:17:56;-0.30;99.90
17146;DHT22;8688;54.444;18.444;2022-12-13T11:20:27;-0.30;99.90
17146;DHT22;8688;54.444;18.444;2022-12-13T11:23:01;-0.40;99.90
17146;DHT22;8688;54.444;18.444;2022-12-13T11:25:35;-0.30;1.00
17146;DHT22;8688;54.444;18.444;2022-12-13T11:28:16;-0.30;1.00
17146;DHT22;8688;54.444;18.444;2022-12-13T11:30:49;-0.30;1.00
17146;DHT22;8688;54.444;18.444;2022-12-13T11:33:25;-0.30;99.90
17146;DHT22;8688;54.444;18.444;2022-12-13T11:36:05;-0.30;99.90
17146;DHT22;8688;54.444;18.444;2022-12-13T11:38:48;-0.30;99.90
17146;DHT22;8688;54.444;18.444;2022-12-13T11:41:24;-0.40;99.90
17146;DHT22;8688;54.444;18.444;2022-12-13T11:43:56;-0.50;1.00
17146;DHT22;8688;54.444;18.444;2022-12-13T11:46:33;-0.50;1.00
17146;DHT22;8688;54.444;18.444;2022-12-13T11:49:04;-0.50;1.00
17146;DHT22;8688;54.444;18.444;2022-12-13T11:51:40;-0.40;1.00
17146;DHT22;8688;54.444;18.444;2022-12-13T11:54:16;-0.40;1.00
17146;DHT22;8688;54.444;18.444;2022-12-13T11:56:46;-0.40;1.00
17146;DHT22;8688;54.444;18.444;2022-12-13T11:59:23;-0.30;1.00
17146;DHT22;8688;54.444;18.444;2022-12-13T12:01:56;-0.20;1.00
17146;DHT22;8688;54.444;18.444;2022-12-13T12:04:31;-0.20;99.90
17146;DHT22;8688;54.444;18.444;2022-12-13T12:07:06;-0.20;99.90
17146;DHT22;8688;54.444;18.444;2022-12-13T12:09:41;-0.20;76.10
17146;DHT22;8688;54.444;18.444;2022-12-13T12:12:13;-0.30;1.00
17146;DHT22;8688;54.444;18.444;2022-12-13T12:14:47;-0.20;1.00
17146;DHT22;8688;54.444;18.444;2022-12-13T12:17:22;-0.20;1.00
17146;DHT22;8688;54.444;18.444;2022-12-13T12:19:52;-0.30;1.00
17146;DHT22;8688;54.444;18.444;2022-12-13T12:22:27;-0.20;1.00
17146;DHT22;8688;54.444;18.444;2022-12-13T12:25:10;-0.10;1.00
17146;DHT22;8688;54.444;18.444;2022-12-13T12:27:47;-0.20;99.90
17146;DHT22;8688;54.444;18.444;2022-12-13T12:30:18;-0.20;99.90
17146;DHT22;8688;54.444;18.444;2022-12-13T12:32:51;-0.40;1.00
17146;DHT22;8688;54.444;18.444;2022-12-13T12:38:41;-0.40;1.00
17146;DHT22;8688;54.444;18.444;2022-12-13T12:41:30;-0.40;1.00
17146;DHT22;8688;54.444;18.444;2022-12-13T12:44:17;-0.40;1.00
17146;DHT22;8688;54.444;18.444;2022-12-13T12:46:58;-0.50;1.00
17146;DHT22;8688;54.444;18.444;2022-12-13T12:50:09;-0.50;1.00
17146;DHT22;8688;54.444;18.444;2022-12-13T12:52:48;-0.40;1.00
17146;DHT22;8688;54.444;18.444;2022-12-13T12:55:21;-0.50;1.00
17146;DHT22;8688;54.444;18.444;2022-12-13T12:58:00;-0.50;1.00
17146;DHT22;8688;54.444;18.444;2022-12-13T13:00:34;-0.50;1.00
17146;DHT22;8688;54.444;18.444;2022-12-13T13:03:13;-0.60;1.00
17146;DHT22;8688;54.444;18.444;2022-12-13T13:05:45;-0.60;1.00
17146;DHT22;8688;54.444;18.444;2022-12-13T13:08:18;-0.70;1.00
17146;DHT22;8688;54.444;18.444;2022-12-13T13:10:47;-0.80;1.00
17146;DHT22;8688;54.444;18.444;2022-12-13T13:13:43;-0.80;1.00
17146;DHT22;8688;54.444;18.444;2022-12-13T13:16:31;-0.70;99.90
17146;DHT22;8688;54.444;18.444;2022-12-13T13:18:59;-0.70;99.90
17146;DHT22;8688;54.444;18.444;2022-12-13T13:21:44;-0.80;1.00
17146;DHT22;8688;54.444;18.444;2022-12-13T13:24:14;-0.80;99.90
17146;DHT22;8688;54.444;18.444;2022-12-13T13:26:44;-0.80;97.40
17146;DHT22;8688;54.444;18.444;2022-12-13T13:29:32;-0.80;63.40
17146;DHT22;8688;54.444;18.444;2022-12-13T13:32:03;-0.80;99.90
17146;DHT22;8688;54.444;18.444;2022-12-13T13:34:32;-0.80;99.90
17146;DHT22;8688;54.444;18.444;2022-12-13T13:37:01;-0.80;99.90
17146;DHT22;8688;54.444;18.444;2022-12-13T13:42:23;-0.80;99.90
17146;DHT22;8688;54.444;18.444;2022-12-13T13:45:00;-0.90;99.90
17146;DHT22;8688;54.444;18.444;2022-12-13T13:47:34;-0.80;1.00
17146;DHT22;8688;54.444;18.444;2022-12-13T13:50:27;-0.80;1.00
17146;DHT22;8688;54.444;18.444;2022-12-13T13:53:11;-0.90;1.00
17146;DHT22;8688;54.444;18.444;2022-12-13T13:55:46;-0.80;99.90
17146;DHT22;8688;54.444;18.444;2022-12-13T13:58:39;-0.80;1.00
17146;DHT22;8688;54.444;18.444;2022-12-13T14:01:38;-0.80;99.90
17146;DHT22;8688;54.444;18.444;2022-12-13T14:04:58;-0.90;1.00
17146;DHT22;8688;54.444;18.444;2022-12-13T14:08:00;-0.90;1.00
17146;DHT22;8688;54.444;18.444;2022-12-13T14:10:49;-0.90;35.00
17146;DHT22;8688;54.444;18.444;2022-12-13T14:13:46;-0.90;1.00
17146;DHT22;8688;54.444;18.444;2022-12-13T14:17:04;-1.10;1.00
17146;DHT22;8688;54.444;18.444;2022-12-13T14:19:53;-1.10;99.90
17146;DHT22;8688;54.444;18.444;2022-12-13T14:22:33;-1.20;99.90
17146;DHT22;8688;54.444;18.444;2022-12-13T14:25:22;-1.20;1.00
17146;DHT22;8688;54.444;18.444;2022-12-13T14:27:56;-1.20;1.00
17146;DHT22;8688;54.444;18.444;2022-12-13T14:30:26;-1.20;99.90
17146;DHT22;8688;54.444;18.444;2022-12-13T14:32:55;-1.20;99.90
17146;DHT22;8688;54.444;18.444;2022-12-13T14:35:25;-1.20;1.00
17146;DHT22;8688;54.444;18.444;2022-12-13T14:37:57;-1.20;1.00
17146;DHT22;8688;54.444;18.444;2022-12-13T14:40:28;-1.20;99.90
17146;DHT22;8688;54.444;18.444;2022-12-13T14:42:56;-1.30;99.90
17146;DHT22;8688;54.444;18.444;2022-12-13T14:45:25;-1.30;1.00
17146;DHT22;8688;54.444;18.444;2022-12-13T14:47:56;-1.30;1.00
17146;DHT22;8688;54.444;18.444;2022-12-13T14:50:25;-1.30;1.00
17146;DHT22;8688;54.444;18.444;2022-12-13T14:52:54;-1.30;1.00
17146;DHT22;8688;54.444;18.444;2022-12-13T14:55:25;-1.30;1.00
17146;DHT22;8688;54.444;18.444;2022-12-13T14:57:54;-1.30;1.00
17146;DHT22;8688;54.444;18.444;2022-12-13T15:00:25;-1.30;1.00
17146;DHT22;8688;54.444;18.444;2022-12-13T15:02:56;-1.30;1.00
17146;DHT22;8688;54.444;18.444;2022-12-13T15:05:26;-1.30;1.00
17146;DHT22;8688;54.444;18.444;2022-12-13T15:07:54;-1.30;1.00
17146;DHT22;8688;54.444;18.444;2022-12-13T15:10:27;-1.30;1.00
17146;DHT22;8688;54.444;18.444;2022-12-13T15:12:58;-1.30;1.00
17146;DHT22;8688;54.444;18.444;2022-12-13T15:15:28;-1.30;1.00
17146;DHT22;8688;54.444;18.444;2022-12-13T15:18:16;-1.30;1.00
17146;DHT22;8688;54.444;18.444;2022-12-13T15:20:45;-1.40;1.00
17146;DHT22;8688;54.444;18.444;2022-12-13T15:23:20;-1.40;1.00
17146;DHT22;8688;54.444;18.444;2022-12-13T15:25:56;-1.40;1.00
17146;DHT22;8688;54.444;18.444;2022-12-13T15:28:26;-1.40;1.00
17146;DHT22;8688;54.444;18.444;2022-12-13T15:30:56;-1.40;1.00
17146;DHT22;8688;54.444;18.444;2022-12-13T15:33:27;-1.40;1.00
17146;DHT22;8688;54.444;18.444;2022-12-13T15:36:05;-1.40;1.00
17146;DHT22;8688;54.444;18.444;2022-12-13T15:38:35;-1.50;1.00
17146;DHT22;8688;54.444;18.444;2022-12-13T15:41:04;-1.50;1.00
17146;DHT22;8688;54.444;18.444;2022-12-13T15:43:36;-1.60;1.00
17146;DHT22;8688;54.444;18.444;2022-12-13T15:46:05;-1.50;1.00
17146;DHT22;8688;54.444;18.444;2022-12-13T15:48:36;-1.60;1.00
17146;DHT22;8688;54.444;18.444;2022-12-13T15:51:08;-1.50;1.00
17146;DHT22;8688;54.444;18.444;2022-12-13T15:53:37;-1.50;99.90
17146;DHT22;8688;54.444;18.444;2022-12-13T15:56:26;-1.60;99.90
17146;DHT22;8688;54.444;18.444;2022-12-13T15:58:55;-1.70;99.90
17146;DHT22;8688;54.444;18.444;2022-12-13T16:01:25;-1.80;99.90
17146;DHT22;8688;54.444;18.444;2022-12-13T16:03:55;-1.80;1.00
17146;DHT22;8688;54.444;18.444;2022-12-13T16:06:24;-1.90;99.90
17146;DHT22;8688;54.444;18.444;2022-12-13T16:08:55;-2.00;1.00
17146;DHT22;8688;54.444;18.444;2022-12-13T16:11:28;-2.10;1.00
17146;DHT22;8688;54.444;18.444;2022-12-13T16:16:58;-2.20;99.90
17146;DHT22;8688;54.444;18.444;2022-12-13T16:19:27;-2.20;99.90
17146;DHT22;8688;54.444;18.444;2022-12-13T16:21:55;-2.20;1.00
17146;DHT22;8688;54.444;18.444;2022-12-13T16:24:22;-2.20;1.00